sensor_id;sensor_type;location;lat;lon;timestamp;P1;durP1;ratioP1;P2;durP2;ratioP2
75450;SDS011;64029;48.244;9.188;2023-05-19T00:02:16;5.33;;;3.80;;
75450;SDS011;64029;48.244;9.188;2023-05-19T00:04:45;5.83;;;3.50;;
75450;SDS011;64029;48.244;9.188;2023-05-19T00:07:14;5.93;;;3.43;;
75450;SDS011;64029;48.244;9.188;2023-05-19T00:09:44;7.73;;;3.60;;
75450;SDS011;64029;48.244;9.188;2023-05-19T00:12:12;3.43;;;2.80;;
75450;SDS011;64029;48.244;9.188;2023-05-19T00:14:40;4.60;;;3.63;;
75450;SDS011;64029;48.244;9.188;2023-05-19T00:17:07;7.03;;;2.77;;
75450;SDS011;64029;48.244;9.188;2023-05-19T00:19:36;3.27;;;2.97;;
75450;SDS011;64029;48.244;9.188;2023-05-19T00:22:03;7.63;;;3.27;;
75450;SDS011;64029;48.244;9.188;2023-05-19T00:24:30;8.00;;;3.83;;
75450;SDS011;64029;48.244;9.188;2023-05-19T00:26:57;5.70;;;3.07;;
75450;SDS011;64029;48.244;9.188;2023-05-19T00:29:24;4.87;;;2.63;;
75450;SDS011;64029;48.244;9.188;2023-05-19T00:31:51;4.60;;;2.90;;
75450;SDS011;64029;48.244;9.188;2023-05-19T00:34:18;4.70;;;3.30;;
75450;SDS011;64029;48.244;9.188;2023-05-19T00:36:46;5.43;;;2.60;;
75450;SDS011;64029;48.244;9.188;2023-05-19T00:39:13;6.33;;;3.60;;
75450;SDS011;64029;48.244;9.188;2023-05-19T00:41:40;9.00;;;3.33;;
75450;SDS011;64029;48.244;9.188;2023-05-19T00:44:07;4.23;;;3.60;;
75450;SDS011;64029;48.244;9.188;2023-05-19T00:46:34;3.27;;;2.97;;
75450;SDS011;64029;48.244;9.188;2023-05-19T00:49:02;4.60;;;3.03;;
75450;SDS011;64029;48.244;9.188;2023-05-19T00:51:28;3.77;;;2.47;;
75450;SDS011;64029;48.244;9.188;2023-05-19T00:53:57;4.00;;;2.90;;
75450;SDS011;64029;48.244;9.188;2023-05-19T00:56:24;3.97;;;2.90;;
75450;SDS011;64029;48.244;9.188;2023-05-19T00:58:52;3.50;;;2.87;;
75450;SDS011;64029;48.244;9.188;2023-05-19T01:01:20;6.77;;;3.10;;
75450;SDS011;64029;48.244;9.188;2023-05-19T01:03:47;4.30;;;2.50;;
75450;SDS011;64029;48.244;9.188;2023-05-19T01:06:15;7.33;;;3.27;;
75450;SDS011;64029;48.244;9.188;2023-05-19T01:08:43;5.60;;;3.40;;
75450;SDS011;64029;48.244;9.188;2023-05-19T01:11:11;5.87;;;2.97;;
75450;SDS011;64029;48.244;9.188;2023-05-19T01:13:38;6.90;;;2.93;;
75450;SDS011;64029;48.244;9.188;2023-05-19T01:16:06;9.00;;;3.10;;
75450;SDS011;64029;48.244;9.188;2023-05-19T01:18:42;2.73;;;2.53;;
75450;SDS011;64029;48.244;9.188;2023-05-19T01:21:29;4.90;;;3.00;;
75450;SDS011;64029;48.244;9.188;2023-05-19T01:24:23;5.20;;;3.43;;
75450;SDS011;64029;48.244;9.188;2023-05-19T01:27:31;5.53;;;2.83;;
75450;SDS011;64029;48.244;9.188;2023-05-19T01:32:56;6.03;;;3.03;;
75450;SDS011;64029;48.244;9.188;2023-05-19T01:35:26;3.73;;;3.40;;
75450;SDS011;64029;48.244;9.188;2023-05-19T01:37:55;5.47;;;4.20;;
75450;SDS011;64029;48.244;9.188;2023-05-19T01:40:24;5.83;;;3.37;;
75450;SDS011;64029;48.244;9.188;2023-05-19T01:42:52;4.93;;;3.20;;
75450;SDS011;64029;48.244;9.188;2023-05-19T01:45:21;4.07;;;3.20;;
75450;SDS011;64029;48.244;9.188;2023-05-19T01:47:51;10.50;;;4.60;;
75450;SDS011;64029;48.244;9.188;2023-05-19T01:50:20;3.93;;;3.30;;
75450;SDS011;64029;48.244;9.188;2023-05-19T01:52:47;5.53;;;3.10;;
75450;SDS011;64029;48.244;9.188;2023-05-19T01:55:14;3.60;;;3.30;;
75450;SDS011;64029;48.244;9.188;2023-05-19T01:57:42;3.83;;;3.47;;
75450;SDS011;64029;48.244;9.188;2023-05-19T02:00:17;4.97;;;2.87;;
75450;SDS011;64029;48.244;9.188;2023-05-19T02:02:54;5.50;;;3.30;;
75450;SDS011;64029;48.244;9.188;2023-05-19T02:05:30;4.50;;;3.17;;
75450;SDS011;64029;48.244;9.188;2023-05-19T02:08:03;7.03;;;3.40;;
75450;SDS011;64029;48.244;9.188;2023-05-19T02:10:36;3.70;;;3.27;;
75450;SDS011;64029;48.244;9.188;2023-05-19T02:13:07;4.33;;;3.10;;
75450;SDS011;64029;48.244;9.188;2023-05-19T02:15:39;8.50;;;3.70;;
75450;SDS011;64029;48.244;9.188;2023-05-19T02:18:10;3.50;;;3.03;;
75450;SDS011;64029;48.244;9.188;2023-05-19T02:20:37;4.13;;;3.17;;
75450;SDS011;64029;48.244;9.188;2023-05-19T02:23:04;3.73;;;2.80;;
75450;SDS011;64029;48.244;9.188;2023-05-19T02:25:31;5.00;;;3.20;;
75450;SDS011;64029;48.244;9.188;2023-05-19T02:27:58;6.13;;;3.60;;
75450;SDS011;64029;48.244;9.188;2023-05-19T02:30:25;3.90;;;3.60;;
75450;SDS011;64029;48.244;9.188;2023-05-19T02:32:52;3.63;;;3.33;;
75450;SDS011;64029;48.244;9.188;2023-05-19T02:35:20;5.87;;;3.30;;
75450;SDS011;64029;48.244;9.188;2023-05-19T02:37:47;5.97;;;3.40;;
75450;SDS011;64029;48.244;9.188;2023-05-19T02:40:14;3.80;;;3.30;;
75450;SDS011;64029;48.244;9.188;2023-05-19T02:42:42;6.60;;;3.67;;
75450;SDS011;64029;48.244;9.188;2023-05-19T02:45:09;4.40;;;3.13;;
75450;SDS011;64029;48.244;9.188;2023-05-19T02:47:36;5.33;;;3.20;;
75450;SDS011;64029;48.244;9.188;2023-05-19T02:50:05;5.03;;;3.60;;
75450;SDS011;64029;48.244;9.188;2023-05-19T02:52:36;7.43;;;4.80;;
75450;SDS011;64029;48.244;9.188;2023-05-19T02:55:03;8.93;;;4.33;;
75450;SDS011;64029;48.244;9.188;2023-05-19T02:57:31;5.00;;;3.70;;
75450;SDS011;64029;48.244;9.188;2023-05-19T02:59:59;5.07;;;3.70;;
75450;SDS011;64029;48.244;9.188;2023-05-19T03:02:26;4.10;;;3.60;;
75450;SDS011;64029;48.244;9.188;2023-05-19T03:04:53;6.43;;;3.57;;
75450;SDS011;64029;48.244;9.188;2023-05-19T03:07:20;6.13;;;4.10;;
75450;SDS011;64029;48.244;9.188;2023-05-19T03:09:50;5.07;;;3.90;;
75450;SDS011;64029;48.244;9.188;2023-05-19T03:12:17;7.90;;;3.80;;
75450;SDS011;64029;48.244;9.188;2023-05-19T03:14:44;6.40;;;3.67;;
75450;SDS011;64029;48.244;9.188;2023-05-19T03:17:11;5.87;;;3.73;;
75450;SDS011;64029;48.244;9.188;2023-05-19T03:19:38;6.37;;;3.80;;
75450;SDS011;64029;48.244;9.188;2023-05-19T03:22:05;4.53;;;3.30;;
75450;SDS011;64029;48.244;9.188;2023-05-19T03:24:32;6.40;;;3.50;;
75450;SDS011;64029;48.244;9.188;2023-05-19T03:27:01;6.23;;;3.83;;
75450;SDS011;64029;48.244;9.188;2023-05-19T03:29:29;4.00;;;3.60;;
75450;SDS011;64029;48.244;9.188;2023-05-19T03:31:56;8.77;;;3.87;;
75450;SDS011;64029;48.244;9.188;2023-05-19T03:34:23;5.77;;;3.50;;
75450;SDS011;64029;48.244;9.188;2023-05-19T03:36:50;6.93;;;4.03;;
75450;SDS011;64029;48.244;9.188;2023-05-19T03:39:17;5.43;;;4.17;;
75450;SDS011;64029;48.244;9.188;2023-05-19T03:41:44;6.03;;;4.87;;
75450;SDS011;64029;48.244;9.188;2023-05-19T03:44:12;7.47;;;3.60;;
75450;SDS011;64029;48.244;9.188;2023-05-19T03:46:39;11.23;;;4.30;;
75450;SDS011;64029;48.244;9.188;2023-05-19T03:49:06;6.00;;;3.83;;
75450;SDS011;64029;48.244;9.188;2023-05-19T03:51:33;7.63;;;3.70;;
75450;SDS011;64029;48.244;9.188;2023-05-19T03:54:00;5.63;;;4.20;;
75450;SDS011;64029;48.244;9.188;2023-05-19T03:56:27;4.90;;;3.90;;
75450;SDS011;64029;48.244;9.188;2023-05-19T03:58:55;10.03;;;4.20;;
75450;SDS011;64029;48.244;9.188;2023-05-19T04:01:23;6.80;;;4.03;;
75450;SDS011;64029;48.244;9.188;2023-05-19T04:03:51;5.20;;;3.77;;
75450;SDS011;64029;48.244;9.188;2023-05-19T04:06:18;8.80;;;4.50;;
75450;SDS011;64029;48.244;9.188;2023-05-19T04:08:45;8.00;;;4.90;;
75450;SDS011;64029;48.244;9.188;2023-05-19T04:11:12;6.93;;;3.87;;
75450;SDS011;64029;48.244;9.188;2023-05-19T04:13:39;9.13;;;4.53;;
75450;SDS011;64029;48.244;9.188;2023-05-19T04:16:06;6.07;;;4.43;;
75450;SDS011;64029;48.244;9.188;2023-05-19T04:18:34;7.53;;;4.67;;
75450;SDS011;64029;48.244;9.188;2023-05-19T04:21:01;7.97;;;5.50;;
75450;SDS011;64029;48.244;9.188;2023-05-19T04:23:28;6.13;;;4.27;;
75450;SDS011;64029;48.244;9.188;2023-05-19T04:25:55;6.70;;;4.30;;
75450;SDS011;64029;48.244;9.188;2023-05-19T04:28:23;12.17;;;5.00;;
75450;SDS011;64029;48.244;9.188;2023-05-19T04:30:49;9.70;;;5.40;;
75450;SDS011;64029;48.244;9.188;2023-05-19T04:33:16;12.97;;;4.77;;
75450;SDS011;64029;48.244;9.188;2023-05-19T04:35:45;9.03;;;5.60;;
75450;SDS011;64029;48.244;9.188;2023-05-19T04:38:14;9.50;;;4.53;;
75450;SDS011;64029;48.244;9.188;2023-05-19T04:40:43;7.60;;;4.23;;
75450;SDS011;64029;48.244;9.188;2023-05-19T04:43:09;7.90;;;4.40;;
75450;SDS011;64029;48.244;9.188;2023-05-19T04:45:36;6.90;;;4.20;;
75450;SDS011;64029;48.244;9.188;2023-05-19T04:48:06;5.97;;;4.50;;
75450;SDS011;64029;48.244;9.188;2023-05-19T04:50:33;5.47;;;4.57;;
75450;SDS011;64029;48.244;9.188;2023-05-19T04:53:03;10.73;;;5.20;;
75450;SDS011;64029;48.244;9.188;2023-05-19T04:55:31;10.87;;;5.20;;
75450;SDS011;64029;48.244;9.188;2023-05-19T04:57:58;8.40;;;4.93;;
75450;SDS011;64029;48.244;9.188;2023-05-19T05:00:25;5.10;;;4.43;;
75450;SDS011;64029;48.244;9.188;2023-05-19T05:02:53;8.40;;;5.03;;
75450;SDS011;64029;48.244;9.188;2023-05-19T05:05:21;8.87;;;5.20;;
75450;SDS011;64029;48.244;9.188;2023-05-19T05:07:48;8.30;;;4.70;;
75450;SDS011;64029;48.244;9.188;2023-05-19T05:10:19;11.23;;;4.37;;
75450;SDS011;64029;48.244;9.188;2023-05-19T05:12:47;10.60;;;4.90;;
75450;SDS011;64029;48.244;9.188;2023-05-19T05:15:14;6.67;;;4.17;;
75450;SDS011;64029;48.244;9.188;2023-05-19T05:17:42;6.80;;;4.30;;
75450;SDS011;64029;48.244;9.188;2023-05-19T05:20:10;6.73;;;4.10;;
75450;SDS011;64029;48.244;9.188;2023-05-19T05:22:38;8.73;;;5.50;;
75450;SDS011;64029;48.244;9.188;2023-05-19T05:25:06;8.27;;;4.60;;
75450;SDS011;64029;48.244;9.188;2023-05-19T05:27:35;7.40;;;4.77;;
75450;SDS011;64029;48.244;9.188;2023-05-19T05:30:02;5.93;;;3.90;;
75450;SDS011;64029;48.244;9.188;2023-05-19T05:32:30;8.70;;;4.97;;
75450;SDS011;64029;48.244;9.188;2023-05-19T05:34:57;8.40;;;4.90;;
75450;SDS011;64029;48.244;9.188;2023-05-19T05:37:24;9.93;;;4.60;;
75450;SDS011;64029;48.244;9.188;2023-05-19T05:39:51;7.50;;;4.00;;
75450;SDS011;64029;48.244;9.188;2023-05-19T05:42:18;9.67;;;4.33;;
75450;SDS011;64029;48.244;9.188;2023-05-19T05:44:46;6.57;;;4.63;;
75450;SDS011;64029;48.244;9.188;2023-05-19T05:47:13;7.33;;;4.10;;
75450;SDS011;64029;48.244;9.188;2023-05-19T05:49:41;8.23;;;4.80;;
75450;SDS011;64029;48.244;9.188;2023-05-19T05:52:08;10.67;;;5.50;;
75450;SDS011;64029;48.244;9.188;2023-05-19T05:54:37;10.13;;;5.10;;
75450;SDS011;64029;48.244;9.188;2023-05-19T05:57:05;8.50;;;4.60;;
75450;SDS011;64029;48.244;9.188;2023-05-19T05:59:32;7.90;;;5.13;;
75450;SDS011;64029;48.244;9.188;2023-05-19T06:02:00;11.60;;;5.30;;
75450;SDS011;64029;48.244;9.188;2023-05-19T06:04:27;8.33;;;4.43;;
75450;SDS011;64029;48.244;9.188;2023-05-19T06:06:55;9.57;;;4.70;;
75450;SDS011;64029;48.244;9.188;2023-05-19T06:09:25;10.30;;;6.40;;
75450;SDS011;64029;48.244;9.188;2023-05-19T06:11:52;8.30;;;5.60;;
75450;SDS011;64029;48.244;9.188;2023-05-19T06:14:19;13.53;;;5.20;;
75450;SDS011;64029;48.244;9.188;2023-05-19T06:16:46;12.97;;;5.07;;
75450;SDS011;64029;48.244;9.188;2023-05-19T06:19:14;10.00;;;5.00;;
75450;SDS011;64029;48.244;9.188;2023-05-19T06:21:41;8.50;;;4.63;;
75450;SDS011;64029;48.244;9.188;2023-05-19T06:24:08;6.23;;;4.70;;
75450;SDS011;64029;48.244;9.188;2023-05-19T06:26:34;9.03;;;4.97;;
75450;SDS011;64029;48.244;9.188;2023-05-19T06:29:01;8.20;;;5.13;;
75450;SDS011;64029;48.244;9.188;2023-05-19T06:31:28;6.57;;;4.63;;
75450;SDS011;64029;48.244;9.188;2023-05-19T06:33:55;8.40;;;5.00;;
75450;SDS011;64029;48.244;9.188;2023-05-19T06:36:23;11.10;;;5.30;;
75450;SDS011;64029;48.244;9.188;2023-05-19T06:38:50;11.70;;;5.70;;
75450;SDS011;64029;48.244;9.188;2023-05-19T06:41:17;13.77;;;5.67;;
75450;SDS011;64029;48.244;9.188;2023-05-19T06:43:45;7.27;;;4.93;;
75450;SDS011;64029;48.244;9.188;2023-05-19T06:46:12;8.20;;;4.80;;
75450;SDS011;64029;48.244;9.188;2023-05-19T06:48:41;9.20;;;5.67;;
75450;SDS011;64029;48.244;9.188;2023-05-19T06:51:08;8.40;;;4.57;;
75450;SDS011;64029;48.244;9.188;2023-05-19T06:53:36;11.43;;;4.73;;
75450;SDS011;64029;48.244;9.188;2023-05-19T06:56:03;13.63;;;4.87;;
75450;SDS011;64029;48.244;9.188;2023-05-19T06:58:30;6.83;;;4.30;;
75450;SDS011;64029;48.244;9.188;2023-05-19T07:00:57;7.07;;;4.43;;
75450;SDS011;64029;48.244;9.188;2023-05-19T07:03:24;8.43;;;4.10;;
75450;SDS011;64029;48.244;9.188;2023-05-19T07:05:51;10.30;;;4.50;;
75450;SDS011;64029;48.244;9.188;2023-05-19T07:08:18;5.90;;;3.90;;
75450;SDS011;64029;48.244;9.188;2023-05-19T07:10:46;6.40;;;4.13;;
75450;SDS011;64029;48.244;9.188;2023-05-19T07:13:13;7.53;;;4.20;;
75450;SDS011;64029;48.244;9.188;2023-05-19T07:15:39;5.53;;;4.10;;
75450;SDS011;64029;48.244;9.188;2023-05-19T07:18:06;4.90;;;4.07;;
75450;SDS011;64029;48.244;9.188;2023-05-19T07:20:33;5.60;;;4.10;;
75450;SDS011;64029;48.244;9.188;2023-05-19T07:23:00;5.87;;;4.47;;
75450;SDS011;64029;48.244;9.188;2023-05-19T07:25:27;8.13;;;4.20;;
75450;SDS011;64029;48.244;9.188;2023-05-19T07:27:56;4.23;;;3.83;;
75450;SDS011;64029;48.244;9.188;2023-05-19T07:30:23;4.20;;;3.83;;
75450;SDS011;64029;48.244;9.188;2023-05-19T07:32:50;9.20;;;4.20;;
75450;SDS011;64029;48.244;9.188;2023-05-19T07:35:16;3.90;;;3.50;;
75450;SDS011;64029;48.244;9.188;2023-05-19T07:37:43;6.27;;;3.80;;
75450;SDS011;64029;48.244;9.188;2023-05-19T07:40:10;5.60;;;3.40;;
75450;SDS011;64029;48.244;9.188;2023-05-19T07:42:37;4.20;;;3.33;;
75450;SDS011;64029;48.244;9.188;2023-05-19T07:45:06;6.77;;;4.10;;
75450;SDS011;64029;48.244;9.188;2023-05-19T07:47:33;12.83;;;4.67;;
75450;SDS011;64029;48.244;9.188;2023-05-19T07:50:00;7.20;;;4.03;;
75450;SDS011;64029;48.244;9.188;2023-05-19T07:52:27;6.07;;;4.90;;
75450;SDS011;64029;48.244;9.188;2023-05-19T07:54:54;6.53;;;4.70;;
75450;SDS011;64029;48.244;9.188;2023-05-19T07:57:21;5.90;;;3.90;;
75450;SDS011;64029;48.244;9.188;2023-05-19T07:59:48;7.50;;;4.87;;
75450;SDS011;64029;48.244;9.188;2023-05-19T08:02:16;7.77;;;4.30;;
75450;SDS011;64029;48.244;9.188;2023-05-19T08:04:43;6.03;;;4.13;;
75450;SDS011;64029;48.244;9.188;2023-05-19T08:07:09;7.13;;;4.00;;
75450;SDS011;64029;48.244;9.188;2023-05-19T08:09:36;5.07;;;3.77;;
75450;SDS011;64029;48.244;9.188;2023-05-19T08:12:03;5.60;;;4.37;;
75450;SDS011;64029;48.244;9.188;2023-05-19T08:14:30;6.03;;;4.27;;
75450;SDS011;64029;48.244;9.188;2023-05-19T08:16:58;6.87;;;4.87;;
75450;SDS011;64029;48.244;9.188;2023-05-19T08:19:27;4.93;;;4.43;;
75450;SDS011;64029;48.244;9.188;2023-05-19T08:21:54;5.17;;;4.30;;
75450;SDS011;64029;48.244;9.188;2023-05-19T08:24:21;6.10;;;4.57;;
75450;SDS011;64029;48.244;9.188;2023-05-19T08:26:48;6.60;;;4.13;;
75450;SDS011;64029;48.244;9.188;2023-05-19T08:29:15;7.10;;;4.70;;
75450;SDS011;64029;48.244;9.188;2023-05-19T08:31:42;9.00;;;4.70;;
75450;SDS011;64029;48.244;9.188;2023-05-19T08:34:09;8.80;;;4.83;;
75450;SDS011;64029;48.244;9.188;2023-05-19T08:36:37;5.90;;;4.20;;
75450;SDS011;64029;48.244;9.188;2023-05-19T08:39:04;6.23;;;4.53;;
75450;SDS011;64029;48.244;9.188;2023-05-19T08:41:31;4.70;;;3.83;;
75450;SDS011;64029;48.244;9.188;2023-05-19T08:43:58;4.60;;;3.80;;
75450;SDS011;64029;48.244;9.188;2023-05-19T08:46:25;6.67;;;3.50;;
75450;SDS011;64029;48.244;9.188;2023-05-19T08:48:53;4.73;;;3.90;;
75450;SDS011;64029;48.244;9.188;2023-05-19T08:51:26;5.97;;;3.80;;
75450;SDS011;64029;48.244;9.188;2023-05-19T08:54:02;6.93;;;3.73;;
75450;SDS011;64029;48.244;9.188;2023-05-19T08:56:34;6.77;;;3.30;;
75450;SDS011;64029;48.244;9.188;2023-05-19T08:59:01;9.10;;;3.80;;
75450;SDS011;64029;48.244;9.188;2023-05-19T09:01:28;11.60;;;4.40;;
75450;SDS011;64029;48.244;9.188;2023-05-19T09:03:55;4.70;;;4.30;;
75450;SDS011;64029;48.244;9.188;2023-05-19T09:06:23;10.60;;;4.20;;
75450;SDS011;64029;48.244;9.188;2023-05-19T09:08:51;8.67;;;4.03;;
75450;SDS011;64029;48.244;9.188;2023-05-19T09:11:19;4.80;;;3.40;;
75450;SDS011;64029;48.244;9.188;2023-05-19T09:13:47;7.70;;;4.10;;
75450;SDS011;64029;48.244;9.188;2023-05-19T09:16:15;4.57;;;4.17;;
75450;SDS011;64029;48.244;9.188;2023-05-19T09:18:52;6.00;;;3.80;;
75450;SDS011;64029;48.244;9.188;2023-05-19T09:21:19;4.50;;;3.53;;
75450;SDS011;64029;48.244;9.188;2023-05-19T09:23:51;7.43;;;4.30;;
75450;SDS011;64029;48.244;9.188;2023-05-19T09:26:21;6.70;;;4.30;;
75450;SDS011;64029;48.244;9.188;2023-05-19T09:28:47;4.40;;;4.00;;
75450;SDS011;64029;48.244;9.188;2023-05-19T09:31:14;5.33;;;3.93;;
75450;SDS011;64029;48.244;9.188;2023-05-19T09:33:41;6.93;;;4.03;;
75450;SDS011;64029;48.244;9.188;2023-05-19T09:36:09;5.13;;;3.97;;
75450;SDS011;64029;48.244;9.188;2023-05-19T09:38:37;5.27;;;4.57;;
75450;SDS011;64029;48.244;9.188;2023-05-19T09:41:04;4.60;;;4.20;;
75450;SDS011;64029;48.244;9.188;2023-05-19T09:43:34;4.50;;;4.10;;
75450;SDS011;64029;48.244;9.188;2023-05-19T09:46:02;4.90;;;4.40;;
75450;SDS011;64029;48.244;9.188;2023-05-19T09:48:29;7.00;;;3.70;;
75450;SDS011;64029;48.244;9.188;2023-05-19T09:50:56;6.30;;;4.30;;
75450;SDS011;64029;48.244;9.188;2023-05-19T09:53:25;8.20;;;4.70;;
75450;SDS011;64029;48.244;9.188;2023-05-19T09:55:54;5.43;;;4.00;;
75450;SDS011;64029;48.244;9.188;2023-05-19T09:58:22;7.37;;;4.37;;
75450;SDS011;64029;48.244;9.188;2023-05-19T10:00:52;7.10;;;4.90;;
75450;SDS011;64029;48.244;9.188;2023-05-19T10:03:19;4.90;;;3.80;;
75450;SDS011;64029;48.244;9.188;2023-05-19T10:05:48;4.80;;;3.90;;
75450;SDS011;64029;48.244;9.188;2023-05-19T10:08:16;5.03;;;3.97;;
75450;SDS011;64029;48.244;9.188;2023-05-19T10:10:43;4.73;;;4.23;;
75450;SDS011;64029;48.244;9.188;2023-05-19T10:13:11;6.20;;;3.90;;
75450;SDS011;64029;48.244;9.188;2023-05-19T10:15:39;4.30;;;3.90;;
75450;SDS011;64029;48.244;9.188;2023-05-19T10:18:08;5.07;;;4.10;;
75450;SDS011;64029;48.244;9.188;2023-05-19T10:20:37;5.53;;;4.10;;
75450;SDS011;64029;48.244;9.188;2023-05-19T10:23:05;6.47;;;4.70;;
75450;SDS011;64029;48.244;9.188;2023-05-19T10:25:32;4.80;;;4.30;;
75450;SDS011;64029;48.244;9.188;2023-05-19T10:28:01;6.00;;;4.63;;
75450;SDS011;64029;48.244;9.188;2023-05-19T10:30:33;4.77;;;4.23;;
75450;SDS011;64029;48.244;9.188;2023-05-19T10:33:05;8.30;;;4.40;;
75450;SDS011;64029;48.244;9.188;2023-05-19T10:35:50;6.47;;;4.70;;
75450;SDS011;64029;48.244;9.188;2023-05-19T10:38:33;6.50;;;4.80;;
75450;SDS011;64029;48.244;9.188;2023-05-19T10:41:09;6.70;;;4.60;;
75450;SDS011;64029;48.244;9.188;2023-05-19T10:43:46;5.60;;;5.10;;
75450;SDS011;64029;48.244;9.188;2023-05-19T10:46:21;4.50;;;4.10;;
75450;SDS011;64029;48.244;9.188;2023-05-19T10:48:50;8.00;;;4.97;;
75450;SDS011;64029;48.244;9.188;2023-05-19T10:51:17;5.50;;;4.20;;
75450;SDS011;64029;48.244;9.188;2023-05-19T10:53:44;6.70;;;4.30;;
75450;SDS011;64029;48.244;9.188;2023-05-19T10:56:11;5.30;;;4.73;;
75450;SDS011;64029;48.244;9.188;2023-05-19T10:58:54;5.40;;;4.43;;
75450;SDS011;64029;48.244;9.188;2023-05-19T11:01:21;5.40;;;4.07;;
75450;SDS011;64029;48.244;9.188;2023-05-19T11:03:56;5.10;;;4.00;;
75450;SDS011;64029;48.244;9.188;2023-05-19T11:06:26;4.93;;;4.07;;
75450;SDS011;64029;48.244;9.188;2023-05-19T11:08:55;5.60;;;4.70;;
75450;SDS011;64029;48.244;9.188;2023-05-19T11:11:24;4.80;;;4.20;;
75450;SDS011;64029;48.244;9.188;2023-05-19T11:13:52;7.63;;;5.03;;
75450;SDS011;64029;48.244;9.188;2023-05-19T11:16:25;5.43;;;4.93;;
75450;SDS011;64029;48.244;9.188;2023-05-19T11:18:53;6.27;;;4.43;;
75450;SDS011;64029;48.244;9.188;2023-05-19T11:21:22;5.40;;;4.17;;
75450;SDS011;64029;48.244;9.188;2023-05-19T11:24:06;5.27;;;4.77;;
75450;SDS011;64029;48.244;9.188;2023-05-19T11:26:39;4.80;;;4.40;;
75450;SDS011;64029;48.244;9.188;2023-05-19T11:29:07;4.30;;;3.90;;
75450;SDS011;64029;48.244;9.188;2023-05-19T11:31:34;5.07;;;4.53;;
75450;SDS011;64029;48.244;9.188;2023-05-19T11:34:01;5.37;;;4.67;;
75450;SDS011;64029;48.244;9.188;2023-05-19T11:36:32;6.07;;;4.67;;
75450;SDS011;64029;48.244;9.188;2023-05-19T11:39:01;6.07;;;4.50;;
75450;SDS011;64029;48.244;9.188;2023-05-19T11:41:29;5.80;;;4.50;;
75450;SDS011;64029;48.244;9.188;2023-05-19T11:43:56;6.13;;;4.87;;
75450;SDS011;64029;48.244;9.188;2023-05-19T11:46:23;11.93;;;5.63;;
75450;SDS011;64029;48.244;9.188;2023-05-19T11:48:50;5.40;;;4.60;;
75450;SDS011;64029;48.244;9.188;2023-05-19T11:51:19;6.13;;;4.83;;
75450;SDS011;64029;48.244;9.188;2023-05-19T11:53:49;6.60;;;4.40;;
75450;SDS011;64029;48.244;9.188;2023-05-19T11:56:18;6.70;;;4.83;;
75450;SDS011;64029;48.244;9.188;2023-05-19T11:58:45;7.27;;;5.03;;
75450;SDS011;64029;48.244;9.188;2023-05-19T12:01:12;11.77;;;4.80;;
75450;SDS011;64029;48.244;9.188;2023-05-19T12:03:39;6.20;;;5.30;;
75450;SDS011;64029;48.244;9.188;2023-05-19T12:06:05;5.60;;;4.70;;
75450;SDS011;64029;48.244;9.188;2023-05-19T12:08:33;5.17;;;4.67;;
75450;SDS011;64029;48.244;9.188;2023-05-19T12:11:03;7.37;;;5.10;;
75450;SDS011;64029;48.244;9.188;2023-05-19T12:13:40;5.90;;;4.60;;
75450;SDS011;64029;48.244;9.188;2023-05-19T12:16:07;8.80;;;5.07;;
75450;SDS011;64029;48.244;9.188;2023-05-19T12:18:35;9.23;;;4.53;;
75450;SDS011;64029;48.244;9.188;2023-05-19T12:21:03;6.00;;;4.80;;
75450;SDS011;64029;48.244;9.188;2023-05-19T12:23:30;5.23;;;4.40;;
75450;SDS011;64029;48.244;9.188;2023-05-19T12:25:58;8.10;;;4.67;;
75450;SDS011;64029;48.244;9.188;2023-05-19T12:28:27;5.90;;;5.13;;
75450;SDS011;64029;48.244;9.188;2023-05-19T12:30:55;4.60;;;3.83;;
75450;SDS011;64029;48.244;9.188;2023-05-19T12:33:22;9.10;;;5.00;;
75450;SDS011;64029;48.244;9.188;2023-05-19T12:35:49;7.80;;;4.60;;
75450;SDS011;64029;48.244;9.188;2023-05-19T12:38:18;7.27;;;5.47;;
75450;SDS011;64029;48.244;9.188;2023-05-19T12:40:45;7.60;;;4.23;;
75450;SDS011;64029;48.244;9.188;2023-05-19T12:43:19;8.00;;;6.20;;
75450;SDS011;64029;48.244;9.188;2023-05-19T12:45:48;6.93;;;5.00;;
75450;SDS011;64029;48.244;9.188;2023-05-19T12:48:15;5.50;;;4.80;;
75450;SDS011;64029;48.244;9.188;2023-05-19T12:50:43;10.70;;;5.77;;
75450;SDS011;64029;48.244;9.188;2023-05-19T12:53:10;7.50;;;5.00;;
75450;SDS011;64029;48.244;9.188;2023-05-19T12:55:37;8.20;;;6.37;;
75450;SDS011;64029;48.244;9.188;2023-05-19T12:58:06;8.53;;;5.33;;
75450;SDS011;64029;48.244;9.188;2023-05-19T13:00:38;10.97;;;5.43;;
75450;SDS011;64029;48.244;9.188;2023-05-19T13:03:08;11.13;;;6.70;;
75450;SDS011;64029;48.244;9.188;2023-05-19T13:05:41;7.53;;;5.80;;
75450;SDS011;64029;48.244;9.188;2023-05-19T13:08:10;4.93;;;4.27;;
75450;SDS011;64029;48.244;9.188;2023-05-19T13:10:39;10.90;;;7.00;;
75450;SDS011;64029;48.244;9.188;2023-05-19T13:13:07;7.80;;;6.50;;
75450;SDS011;64029;48.244;9.188;2023-05-19T13:15:35;10.23;;;6.33;;
75450;SDS011;64029;48.244;9.188;2023-05-19T13:18:03;8.80;;;5.60;;
75450;SDS011;64029;48.244;9.188;2023-05-19T13:20:34;6.40;;;5.40;;
75450;SDS011;64029;48.244;9.188;2023-05-19T13:23:02;6.07;;;4.80;;
75450;SDS011;64029;48.244;9.188;2023-05-19T13:25:30;6.60;;;4.70;;
75450;SDS011;64029;48.244;9.188;2023-05-19T13:27:58;5.50;;;4.80;;
75450;SDS011;64029;48.244;9.188;2023-05-19T13:30:25;9.47;;;5.13;;
75450;SDS011;64029;48.244;9.188;2023-05-19T13:32:54;5.93;;;5.00;;
75450;SDS011;64029;48.244;9.188;2023-05-19T13:35:21;6.23;;;5.40;;
75450;SDS011;64029;48.244;9.188;2023-05-19T13:37:50;5.33;;;4.60;;
75450;SDS011;64029;48.244;9.188;2023-05-19T13:40:16;5.53;;;4.00;;
75450;SDS011;64029;48.244;9.188;2023-05-19T13:42:43;6.70;;;4.10;;
75450;SDS011;64029;48.244;9.188;2023-05-19T13:45:10;5.60;;;4.57;;
75450;SDS011;64029;48.244;9.188;2023-05-19T13:47:37;5.07;;;4.67;;
75450;SDS011;64029;48.244;9.188;2023-05-19T13:50:05;5.10;;;4.47;;
75450;SDS011;64029;48.244;9.188;2023-05-19T13:52:32;6.80;;;4.90;;
75450;SDS011;64029;48.244;9.188;2023-05-19T13:55:00;5.97;;;5.23;;
75450;SDS011;64029;48.244;9.188;2023-05-19T13:57:27;6.83;;;4.53;;
75450;SDS011;64029;48.244;9.188;2023-05-19T13:59:54;8.83;;;4.60;;
75450;SDS011;64029;48.244;9.188;2023-05-19T14:02:21;6.47;;;4.90;;
75450;SDS011;64029;48.244;9.188;2023-05-19T14:04:48;5.63;;;4.93;;
75450;SDS011;64029;48.244;9.188;2023-05-19T14:07:15;6.33;;;5.37;;
75450;SDS011;64029;48.244;9.188;2023-05-19T14:09:41;7.43;;;4.43;;
75450;SDS011;64029;48.244;9.188;2023-05-19T14:12:10;7.87;;;5.97;;
75450;SDS011;64029;48.244;9.188;2023-05-19T14:14:37;7.93;;;5.13;;
75450;SDS011;64029;48.244;9.188;2023-05-19T14:17:04;9.67;;;5.47;;
75450;SDS011;64029;48.244;9.188;2023-05-19T14:19:31;4.83;;;4.40;;
75450;SDS011;64029;48.244;9.188;2023-05-19T14:21:58;6.73;;;4.90;;
75450;SDS011;64029;48.244;9.188;2023-05-19T14:24:25;6.17;;;5.10;;
75450;SDS011;64029;48.244;9.188;2023-05-19T14:26:52;5.83;;;5.10;;
75450;SDS011;64029;48.244;9.188;2023-05-19T14:29:20;6.03;;;4.67;;
75450;SDS011;64029;48.244;9.188;2023-05-19T14:31:47;5.20;;;4.30;;
75450;SDS011;64029;48.244;9.188;2023-05-19T14:34:13;5.93;;;5.23;;
75450;SDS011;64029;48.244;9.188;2023-05-19T14:36:44;5.93;;;4.90;;
75450;SDS011;64029;48.244;9.188;2023-05-19T14:39:11;7.03;;;6.00;;
75450;SDS011;64029;48.244;9.188;2023-05-19T14:41:38;8.70;;;5.80;;
75450;SDS011;64029;48.244;9.188;2023-05-19T14:44:05;6.90;;;5.97;;
75450;SDS011;64029;48.244;9.188;2023-05-19T14:46:33;6.93;;;5.67;;
75450;SDS011;64029;48.244;9.188;2023-05-19T14:49:00;7.40;;;6.07;;
75450;SDS011;64029;48.244;9.188;2023-05-19T14:51:29;6.67;;;5.90;;
75450;SDS011;64029;48.244;9.188;2023-05-19T14:53:56;8.60;;;5.97;;
75450;SDS011;64029;48.244;9.188;2023-05-19T14:56:24;9.53;;;6.70;;